sensor_id;sensor_type;location;lat;lon;timestamp;P1;durP1;ratioP1;P2;durP2;ratioP2
45114;SDS011;30877;43.706;10.780;2023-12-29T00:01:06;22.63;;;19.55;;
45114;SDS011;30877;43.706;10.780;2023-12-29T00:03:36;24.17;;;20.05;;
45114;SDS011;30877;43.706;10.780;2023-12-29T00:06:05;21.95;;;17.73;;
45114;SDS011;30877;43.706;10.780;2023-12-29T00:08:34;25.63;;;19.73;;
45114;SDS011;30877;43.706;10.780;2023-12-29T00:11:04;21.15;;;17.77;;
45114;SDS011;30877;43.706;10.780;2023-12-29T00:13:32;25.35;;;19.35;;
45114;SDS011;30877;43.706;10.780;2023-12-29T00:16:02;20.75;;;17.60;;
45114;SDS011;30877;43.706;10.780;2023-12-29T00:18:31;20.48;;;18.20;;
45114;SDS011;30877;43.706;10.780;2023-12-29T00:21:01;24.35;;;19.85;;
45114;SDS011;30877;43.706;10.780;2023-12-29T00:23:34;25.63;;;20.10;;
45114;SDS011;30877;43.706;10.780;2023-12-29T00:26:04;23.77;;;19.98;;
45114;SDS011;30877;43.706;10.780;2023-12-29T00:28:32;22.83;;;19.83;;
45114;SDS011;30877;43.706;10.780;2023-12-29T00:31:04;25.15;;;20.45;;
45114;SDS011;30877;43.706;10.780;2023-12-29T00:33:33;23.95;;;20.25;;
45114;SDS011;30877;43.706;10.780;2023-12-29T00:36:03;22.83;;;18.42;;
45114;SDS011;30877;43.706;10.780;2023-12-29T00:38:32;22.05;;;18.80;;
45114;SDS011;30877;43.706;10.780;2023-12-29T00:41:00;22.80;;;18.98;;
45114;SDS011;30877;43.706;10.780;2023-12-29T00:43:31;22.38;;;18.73;;
45114;SDS011;30877;43.706;10.780;2023-12-29T00:46:01;23.80;;;19.60;;
45114;SDS011;30877;43.706;10.780;2023-12-29T00:48:32;21.13;;;17.85;;
45114;SDS011;30877;43.706;10.780;2023-12-29T00:51:03;22.02;;;18.90;;
45114;SDS011;30877;43.706;10.780;2023-12-29T00:53:32;22.20;;;18.08;;
45114;SDS011;30877;43.706;10.780;2023-12-29T00:56:09;20.45;;;17.42;;
45114;SDS011;30877;43.706;10.780;2023-12-29T00:58:38;22.85;;;18.80;;
45114;SDS011;30877;43.706;10.780;2023-12-29T01:01:07;21.48;;;19.05;;
45114;SDS011;30877;43.706;10.780;2023-12-29T01:03:40;23.27;;;19.98;;
45114;SDS011;30877;43.706;10.780;2023-12-29T01:06:09;21.75;;;18.80;;
45114;SDS011;30877;43.706;10.780;2023-12-29T01:08:39;21.42;;;19.00;;
45114;SDS011;30877;43.706;10.780;2023-12-29T01:11:09;23.80;;;19.65;;
45114;SDS011;30877;43.706;10.780;2023-12-29T01:13:37;24.65;;;20.33;;
45114;SDS011;30877;43.706;10.780;2023-12-29T01:16:05;24.60;;;20.15;;
45114;SDS011;30877;43.706;10.780;2023-12-29T01:18:35;25.50;;;20.55;;
45114;SDS011;30877;43.706;10.780;2023-12-29T01:21:08;24.83;;;19.95;;
45114;SDS011;30877;43.706;10.780;2023-12-29T01:23:37;22.85;;;19.98;;
45114;SDS011;30877;43.706;10.780;2023-12-29T01:26:07;25.25;;;21.05;;
45114;SDS011;30877;43.706;10.780;2023-12-29T01:28:37;28.73;;;21.88;;
45114;SDS011;30877;43.706;10.780;2023-12-29T01:31:05;23.92;;;19.70;;
45114;SDS011;30877;43.706;10.780;2023-12-29T01:33:36;22.77;;;19.40;;
45114;SDS011;30877;43.706;10.780;2023-12-29T01:36:05;22.35;;;18.75;;
45114;SDS011;30877;43.706;10.780;2023-12-29T01:38:46;23.67;;;20.65;;
45114;SDS011;30877;43.706;10.780;2023-12-29T01:41:15;22.60;;;18.95;;
45114;SDS011;30877;43.706;10.780;2023-12-29T01:46:46;22.48;;;18.50;;
45114;SDS011;30877;43.706;10.780;2023-12-29T01:49:16;22.02;;;18.52;;
45114;SDS011;30877;43.706;10.780;2023-12-29T01:51:48;21.45;;;17.08;;
45114;SDS011;30877;43.706;10.780;2023-12-29T01:54:27;20.33;;;17.23;;
45114;SDS011;30877;43.706;10.780;2023-12-29T01:56:59;21.77;;;17.80;;
45114;SDS011;30877;43.706;10.780;2023-12-29T01:59:29;21.85;;;19.10;;
45114;SDS011;30877;43.706;10.780;2023-12-29T02:02:01;22.88;;;19.75;;
45114;SDS011;30877;43.706;10.780;2023-12-29T02:04:30;24.05;;;19.70;;
45114;SDS011;30877;43.706;10.780;2023-12-29T02:06:59;20.73;;;18.42;;
45114;SDS011;30877;43.706;10.780;2023-12-29T02:12:21;21.60;;;18.02;;
45114;SDS011;30877;43.706;10.780;2023-12-29T02:14:50;22.30;;;17.85;;
45114;SDS011;30877;43.706;10.780;2023-12-29T02:17:22;24.77;;;18.65;;
45114;SDS011;30877;43.706;10.780;2023-12-29T02:19:54;21.02;;;17.25;;
45114;SDS011;30877;43.706;10.780;2023-12-29T02:27:31;18.58;;;16.58;;
45114;SDS011;30877;43.706;10.780;2023-12-29T02:33:18;19.77;;;16.23;;
45114;SDS011;30877;43.706;10.780;2023-12-29T02:35:52;22.13;;;17.10;;
45114;SDS011;30877;43.706;10.780;2023-12-29T02:38:28;18.15;;;16.27;;
45114;SDS011;30877;43.706;10.780;2023-12-29T02:41:26;20.65;;;15.48;;
45114;SDS011;30877;43.706;10.780;2023-12-29T02:44:02;21.60;;;16.08;;
45114;SDS011;30877;43.706;10.780;2023-12-29T02:46:53;21.40;;;18.13;;
45114;SDS011;30877;43.706;10.780;2023-12-29T02:49:28;22.17;;;16.35;;
45114;SDS011;30877;43.706;10.780;2023-12-29T02:51:57;20.42;;;18.10;;
45114;SDS011;30877;43.706;10.780;2023-12-29T02:58:25;21.08;;;17.55;;
45114;SDS011;30877;43.706;10.780;2023-12-29T03:00:56;20.55;;;17.35;;
45114;SDS011;30877;43.706;10.780;2023-12-29T03:03:24;22.25;;;17.35;;
45114;SDS011;30877;43.706;10.780;2023-12-29T03:17:16;16.77;;;14.43;;
45114;SDS011;30877;43.706;10.780;2023-12-29T03:19:52;16.88;;;14.35;;
45114;SDS011;30877;43.706;10.780;2023-12-29T03:22:23;19.38;;;15.80;;
45114;SDS011;30877;43.706;10.780;2023-12-29T03:31:36;19.15;;;15.48;;
45114;SDS011;30877;43.706;10.780;2023-12-29T03:34:08;15.75;;;14.10;;
45114;SDS011;30877;43.706;10.780;2023-12-29T03:40:34;17.83;;;15.07;;
45114;SDS011;30877;43.706;10.780;2023-12-29T03:43:03;18.30;;;14.32;;
45114;SDS011;30877;43.706;10.780;2023-12-29T03:45:35;18.92;;;15.48;;
45114;SDS011;30877;43.706;10.780;2023-12-29T03:48:04;19.05;;;15.70;;
45114;SDS011;30877;43.706;10.780;2023-12-29T03:50:47;19.92;;;16.48;;
45114;SDS011;30877;43.706;10.780;2023-12-29T03:53:16;17.75;;;15.85;;
45114;SDS011;30877;43.706;10.780;2023-12-29T03:55:48;18.15;;;16.10;;
45114;SDS011;30877;43.706;10.780;2023-12-29T03:58:21;18.83;;;16.27;;
45114;SDS011;30877;43.706;10.780;2023-12-29T04:00:50;19.23;;;16.17;;
45114;SDS011;30877;43.706;10.780;2023-12-29T04:03:22;19.10;;;15.93;;
45114;SDS011;30877;43.706;10.780;2023-12-29T04:06:45;19.05;;;15.45;;
45114;SDS011;30877;43.706;10.780;2023-12-29T04:09:38;19.92;;;16.17;;
45114;SDS011;30877;43.706;10.780;2023-12-29T04:12:18;18.67;;;15.65;;
45114;SDS011;30877;43.706;10.780;2023-12-29T04:14:47;18.80;;;15.97;;
45114;SDS011;30877;43.706;10.780;2023-12-29T04:21:04;17.67;;;15.18;;
45114;SDS011;30877;43.706;10.780;2023-12-29T04:24:18;19.33;;;16.08;;
45114;SDS011;30877;43.706;10.780;2023-12-29T04:27:43;18.42;;;15.93;;
45114;SDS011;30877;43.706;10.780;2023-12-29T04:30:13;19.67;;;16.10;;
45114;SDS011;30877;43.706;10.780;2023-12-29T04:32:48;19.10;;;15.68;;
45114;SDS011;30877;43.706;10.780;2023-12-29T04:35:20;16.35;;;14.15;;
45114;SDS011;30877;43.706;10.780;2023-12-29T04:37:52;15.05;;;13.43;;
45114;SDS011;30877;43.706;10.780;2023-12-29T04:40:26;16.30;;;13.70;;
45114;SDS011;30877;43.706;10.780;2023-12-29T04:42:55;15.90;;;14.02;;
45114;SDS011;30877;43.706;10.780;2023-12-29T04:49:36;14.40;;;12.32;;
45114;SDS011;30877;43.706;10.780;2023-12-29T04:59:27;14.75;;;12.77;;
45114;SDS011;30877;43.706;10.780;2023-12-29T05:11:03;16.02;;;14.13;;
45114;SDS011;30877;43.706;10.780;2023-12-29T05:18:12;17.70;;;14.52;;
45114;SDS011;30877;43.706;10.780;2023-12-29T05:21:25;16.88;;;14.85;;
45114;SDS011;30877;43.706;10.780;2023-12-29T05:23:54;18.35;;;14.90;;
45114;SDS011;30877;43.706;10.780;2023-12-29T05:26:24;17.33;;;15.07;;
45114;SDS011;30877;43.706;10.780;2023-12-29T05:29:06;18.50;;;15.57;;
45114;SDS011;30877;43.706;10.780;2023-12-29T05:31:42;15.98;;;13.80;;
45114;SDS011;30877;43.706;10.780;2023-12-29T05:34:17;15.32;;;13.57;;
45114;SDS011;30877;43.706;10.780;2023-12-29T05:40:42;17.52;;;15.65;;
45114;SDS011;30877;43.706;10.780;2023-12-29T05:43:12;19.08;;;14.75;;
45114;SDS011;30877;43.706;10.780;2023-12-29T05:45:44;18.88;;;15.27;;
45114;SDS011;30877;43.706;10.780;2023-12-29T05:52:04;19.60;;;15.50;;
45114;SDS011;30877;43.706;10.780;2023-12-29T05:54:38;16.40;;;14.65;;
45114;SDS011;30877;43.706;10.780;2023-12-29T05:57:07;19.88;;;16.40;;
45114;SDS011;30877;43.706;10.780;2023-12-29T05:59:39;19.65;;;15.88;;
45114;SDS011;30877;43.706;10.780;2023-12-29T06:02:20;16.58;;;14.23;;
45114;SDS011;30877;43.706;10.780;2023-12-29T06:04:50;16.42;;;13.63;;
45114;SDS011;30877;43.706;10.780;2023-12-29T06:07:22;14.77;;;12.32;;
45114;SDS011;30877;43.706;10.780;2023-12-29T06:09:51;13.63;;;11.70;;
45114;SDS011;30877;43.706;10.780;2023-12-29T06:12:52;13.57;;;12.18;;
45114;SDS011;30877;43.706;10.780;2023-12-29T06:15:21;13.90;;;12.48;;
45114;SDS011;30877;43.706;10.780;2023-12-29T06:21:18;15.38;;;13.00;;
45114;SDS011;30877;43.706;10.780;2023-12-29T06:27:47;15.98;;;13.38;;
45114;SDS011;30877;43.706;10.780;2023-12-29T06:30:19;16.77;;;14.30;;
45114;SDS011;30877;43.706;10.780;2023-12-29T06:33:07;17.30;;;14.32;;
45114;SDS011;30877;43.706;10.780;2023-12-29T06:36:10;18.65;;;14.77;;
45114;SDS011;30877;43.706;10.780;2023-12-29T06:38:40;19.15;;;16.85;;
45114;SDS011;30877;43.706;10.780;2023-12-29T06:41:09;20.13;;;15.48;;
45114;SDS011;30877;43.706;10.780;2023-12-29T06:43:41;17.55;;;15.73;;
45114;SDS011;30877;43.706;10.780;2023-12-29T06:46:11;21.33;;;15.43;;
45114;SDS011;30877;43.706;10.780;2023-12-29T06:48:46;18.15;;;15.27;;
45114;SDS011;30877;43.706;10.780;2023-12-29T06:51:26;15.80;;;14.20;;
45114;SDS011;30877;43.706;10.780;2023-12-29T06:54:19;18.33;;;13.90;;
45114;SDS011;30877;43.706;10.780;2023-12-29T06:56:57;17.75;;;14.30;;
45114;SDS011;30877;43.706;10.780;2023-12-29T06:59:28;18.73;;;14.30;;
45114;SDS011;30877;43.706;10.780;2023-12-29T07:02:12;15.95;;;13.25;;
45114;SDS011;30877;43.706;10.780;2023-12-29T07:08:32;15.57;;;12.88;;
45114;SDS011;30877;43.706;10.780;2023-12-29T07:11:06;14.88;;;12.52;;
45114;SDS011;30877;43.706;10.780;2023-12-29T07:14:24;14.68;;;12.35;;
45114;SDS011;30877;43.706;10.780;2023-12-29T07:16:55;13.70;;;12.30;;
45114;SDS011;30877;43.706;10.780;2023-12-29T07:19:30;15.50;;;12.60;;
45114;SDS011;30877;43.706;10.780;2023-12-29T07:22:26;14.82;;;13.00;;
45114;SDS011;30877;43.706;10.780;2023-12-29T07:24:59;14.55;;;12.52;;
45114;SDS011;30877;43.706;10.780;2023-12-29T07:27:29;14.52;;;11.98;;
45114;SDS011;30877;43.706;10.780;2023-12-29T07:30:00;14.82;;;12.88;;
45114;SDS011;30877;43.706;10.780;2023-12-29T07:32:33;15.85;;;12.75;;
45114;SDS011;30877;43.706;10.780;2023-12-29T07:38:16;16.42;;;14.75;;
45114;SDS011;30877;43.706;10.780;2023-12-29T07:45:10;14.68;;;12.95;;
45114;SDS011;30877;43.706;10.780;2023-12-29T07:47:51;14.57;;;12.80;;
45114;SDS011;30877;43.706;10.780;2023-12-29T07:50:43;16.13;;;12.65;;
45114;SDS011;30877;43.706;10.780;2023-12-29T07:53:12;16.13;;;13.55;;
45114;SDS011;30877;43.706;10.780;2023-12-29T07:55:45;14.68;;;12.35;;
45114;SDS011;30877;43.706;10.780;2023-12-29T07:58:16;14.27;;;12.75;;
45114;SDS011;30877;43.706;10.780;2023-12-29T08:00:55;16.13;;;12.98;;
45114;SDS011;30877;43.706;10.780;2023-12-29T08:03:31;15.98;;;12.85;;
45114;SDS011;30877;43.706;10.780;2023-12-29T08:06:05;14.18;;;12.27;;
45114;SDS011;30877;43.706;10.780;2023-12-29T08:08:53;12.52;;;11.18;;
45114;SDS011;30877;43.706;10.780;2023-12-29T08:11:25;12.88;;;10.90;;
45114;SDS011;30877;43.706;10.780;2023-12-29T08:13:57;14.25;;;11.93;;
45114;SDS011;30877;43.706;10.780;2023-12-29T08:16:29;12.52;;;11.07;;
45114;SDS011;30877;43.706;10.780;2023-12-29T08:18:59;11.63;;;10.43;;
45114;SDS011;30877;43.706;10.780;2023-12-29T08:21:28;12.25;;;10.35;;
45114;SDS011;30877;43.706;10.780;2023-12-29T08:23:57;11.32;;;10.13;;
45114;SDS011;30877;43.706;10.780;2023-12-29T08:26:43;10.85;;;9.70;;
45114;SDS011;30877;43.706;10.780;2023-12-29T08:34:37;9.93;;;8.95;;
45114;SDS011;30877;43.706;10.780;2023-12-29T08:37:06;9.75;;;8.40;;
45114;SDS011;30877;43.706;10.780;2023-12-29T08:39:35;26.73;;;21.25;;
45114;SDS011;30877;43.706;10.780;2023-12-29T08:42:03;23.88;;;18.27;;
45114;SDS011;30877;43.706;10.780;2023-12-29T08:44:38;12.68;;;10.93;;
45114;SDS011;30877;43.706;10.780;2023-12-29T08:47:16;13.68;;;11.93;;
45114;SDS011;30877;43.706;10.780;2023-12-29T08:50:12;13.40;;;10.85;;
45114;SDS011;30877;43.706;10.780;2023-12-29T08:57:08;14.18;;;9.95;;
45114;SDS011;30877;43.706;10.780;2023-12-29T08:59:39;12.48;;;9.63;;
45114;SDS011;30877;43.706;10.780;2023-12-29T09:03:07;11.18;;;9.80;;
45114;SDS011;30877;43.706;10.780;2023-12-29T09:06:38;11.05;;;9.23;;
45114;SDS011;30877;43.706;10.780;2023-12-29T09:12:51;13.10;;;9.80;;
45114;SDS011;30877;43.706;10.780;2023-12-29T09:15:36;11.45;;;9.63;;
45114;SDS011;30877;43.706;10.780;2023-12-29T09:18:11;10.90;;;9.80;;
45114;SDS011;30877;43.706;10.780;2023-12-29T09:20:40;10.63;;;9.23;;
45114;SDS011;30877;43.706;10.780;2023-12-29T09:23:10;10.95;;;9.80;;
45114;SDS011;30877;43.706;10.780;2023-12-29T09:25:39;12.68;;;10.38;;
45114;SDS011;30877;43.706;10.780;2023-12-29T09:28:20;12.27;;;10.55;;
45114;SDS011;30877;43.706;10.780;2023-12-29T09:30:48;13.00;;;11.07;;
45114;SDS011;30877;43.706;10.780;2023-12-29T09:33:17;12.25;;;10.85;;
45114;SDS011;30877;43.706;10.780;2023-12-29T09:36:13;12.60;;;11.32;;
45114;SDS011;30877;43.706;10.780;2023-12-29T09:41:56;13.23;;;11.40;;
45114;SDS011;30877;43.706;10.780;2023-12-29T09:44:30;16.15;;;12.00;;
45114;SDS011;30877;43.706;10.780;2023-12-29T09:47:04;14.60;;;12.88;;
45114;SDS011;30877;43.706;10.780;2023-12-29T09:49:45;14.63;;;13.10;;
45114;SDS011;30877;43.706;10.780;2023-12-29T09:52:15;15.95;;;12.43;;
45114;SDS011;30877;43.706;10.780;2023-12-29T09:54:53;17.02;;;14.52;;
45114;SDS011;30877;43.706;10.780;2023-12-29T09:57:22;16.30;;;14.57;;
45114;SDS011;30877;43.706;10.780;2023-12-29T09:59:53;17.17;;;15.35;;
45114;SDS011;30877;43.706;10.780;2023-12-29T10:02:25;16.27;;;14.65;;
45114;SDS011;30877;43.706;10.780;2023-12-29T10:04:59;20.02;;;16.38;;
45114;SDS011;30877;43.706;10.780;2023-12-29T10:07:31;18.15;;;16.27;;
45114;SDS011;30877;43.706;10.780;2023-12-29T10:10:23;51.78;;;42.40;;
45114;SDS011;30877;43.706;10.780;2023-12-29T10:12:55;20.42;;;17.77;;
45114;SDS011;30877;43.706;10.780;2023-12-29T10:15:27;20.80;;;15.15;;
45114;SDS011;30877;43.706;10.780;2023-12-29T10:18:40;20.27;;;16.42;;
45114;SDS011;30877;43.706;10.780;2023-12-29T10:21:16;21.80;;;16.25;;
45114;SDS011;30877;43.706;10.780;2023-12-29T10:23:56;20.02;;;16.98;;
45114;SDS011;30877;43.706;10.780;2023-12-29T10:26:37;21.05;;;18.83;;
45114;SDS011;30877;43.706;10.780;2023-12-29T10:29:10;22.08;;;18.73;;
45114;SDS011;30877;43.706;10.780;2023-12-29T10:31:46;24.33;;;20.95;;
45114;SDS011;30877;43.706;10.780;2023-12-29T10:34:18;24.40;;;21.05;;
45114;SDS011;30877;43.706;10.780;2023-12-29T10:36:48;22.88;;;20.48;;
45114;SDS011;30877;43.706;10.780;2023-12-29T10:39:20;22.73;;;20.33;;
45114;SDS011;30877;43.706;10.780;2023-12-29T10:42:09;21.65;;;19.30;;
45114;SDS011;30877;43.706;10.780;2023-12-29T10:44:48;20.95;;;18.45;;
45114;SDS011;30877;43.706;10.780;2023-12-29T10:48:07;20.15;;;18.02;;
45114;SDS011;30877;43.706;10.780;2023-12-29T10:54:05;19.70;;;17.55;;
45114;SDS011;30877;43.706;10.780;2023-12-29T10:56:43;19.05;;;16.38;;
45114;SDS011;30877;43.706;10.780;2023-12-29T10:59:15;19.70;;;16.63;;
45114;SDS011;30877;43.706;10.780;2023-12-29T11:01:44;19.08;;;16.98;;
45114;SDS011;30877;43.706;10.780;2023-12-29T11:04:21;21.38;;;17.13;;
45114;SDS011;30877;43.706;10.780;2023-12-29T11:07:09;18.10;;;16.00;;
45114;SDS011;30877;43.706;10.780;2023-12-29T11:10:26;19.50;;;16.10;;
45114;SDS011;30877;43.706;10.780;2023-12-29T11:12:57;19.52;;;16.77;;
45114;SDS011;30877;43.706;10.780;2023-12-29T11:15:29;16.77;;;15.07;;
45114;SDS011;30877;43.706;10.780;2023-12-29T11:18:22;16.23;;;14.52;;
45114;SDS011;30877;43.706;10.780;2023-12-29T11:20:51;17.17;;;14.43;;
45114;SDS011;30877;43.706;10.780;2023-12-29T11:23:20;20.90;;;18.15;;
45114;SDS011;30877;43.706;10.780;2023-12-29T11:25:49;17.65;;;15.73;;
45114;SDS011;30877;43.706;10.780;2023-12-29T11:31:10;14.98;;;13.43;;
45114;SDS011;30877;43.706;10.780;2023-12-29T11:33:40;16.20;;;14.60;;
45114;SDS011;30877;43.706;10.780;2023-12-29T11:39:24;18.50;;;16.15;;
45114;SDS011;30877;43.706;10.780;2023-12-29T11:57:55;17.60;;;15.73;;
45114;SDS011;30877;43.706;10.780;2023-12-29T12:01:04;17.10;;;15.30;;
45114;SDS011;30877;43.706;10.780;2023-12-29T12:08:06;16.90;;;15.07;;
45114;SDS011;30877;43.706;10.780;2023-12-29T12:10:38;17.13;;;15.35;;
45114;SDS011;30877;43.706;10.780;2023-12-29T12:13:09;17.15;;;15.45;;
45114;SDS011;30877;43.706;10.780;2023-12-29T12:15:39;19.55;;;17.50;;
45114;SDS011;30877;43.706;10.780;2023-12-29T12:18:27;22.08;;;19.48;;
45114;SDS011;30877;43.706;10.780;2023-12-29T12:22:05;19.05;;;17.02;;
45114;SDS011;30877;43.706;10.780;2023-12-29T12:24:47;19.00;;;17.00;;
45114;SDS011;30877;43.706;10.780;2023-12-29T12:27:18;19.40;;;17.40;;
45114;SDS011;30877;43.706;10.780;2023-12-29T12:30:52;19.58;;;17.58;;
45114;SDS011;30877;43.706;10.780;2023-12-29T12:34:07;18.48;;;16.52;;
45114;SDS011;30877;43.706;10.780;2023-12-29T12:36:50;20.50;;;18.30;;
45114;SDS011;30877;43.706;10.780;2023-12-29T12:39:20;20.35;;;18.15;;
45114;SDS011;30877;43.706;10.780;2023-12-29T12:41:54;20.10;;;17.95;;
45114;SDS011;30877;43.706;10.780;2023-12-29T12:51:49;20.33;;;18.15;;
45114;SDS011;30877;43.706;10.780;2023-12-29T12:54:21;22.25;;;18.52;;
45114;SDS011;30877;43.706;10.780;2023-12-29T12:57:04;22.05;;;19.60;;
45114;SDS011;30877;43.706;10.780;2023-12-29T13:01:06;19.63;;;17.60;;
45114;SDS011;30877;43.706;10.780;2023-12-29T13:03:36;20.58;;;18.45;;
45114;SDS011;30877;43.706;10.780;2023-12-29T13:06:06;20.80;;;18.65;;
45114;SDS011;30877;43.706;10.780;2023-12-29T13:08:36;23.10;;;19.15;;
45114;SDS011;30877;43.706;10.780;2023-12-29T13:11:10;19.50;;;17.33;;
45114;SDS011;30877;43.706;10.780;2023-12-29T13:13:44;18.88;;;16.95;;
45114;SDS011;30877;43.706;10.780;2023-12-29T13:16:13;17.80;;;15.95;;
45114;SDS011;30877;43.706;10.780;2023-12-29T13:18:43;18.80;;;16.85;;
45114;SDS011;30877;43.706;10.780;2023-12-29T13:21:16;19.23;;;16.73;;
45114;SDS011;30877;43.706;10.780;2023-12-29T13:23:46;18.25;;;16.20;;
45114;SDS011;30877;43.706;10.780;2023-12-29T13:26:29;17.38;;;15.63;;
45114;SDS011;30877;43.706;10.780;2023-12-29T13:32:39;17.67;;;15.82;;
45114;SDS011;30877;43.706;10.780;2023-12-29T13:36:05;22.50;;;17.73;;
45114;SDS011;30877;43.706;10.780;2023-12-29T13:46:39;19.70;;;17.63;;
45114;SDS011;30877;43.706;10.780;2023-12-29T13:49:14;19.50;;;17.40;;
45114;SDS011;30877;43.706;10.780;2023-12-29T13:51:45;20.17;;;18.08;;
45114;SDS011;30877;43.706;10.780;2023-12-29T13:54:17;17.98;;;15.50;;
45114;SDS011;30877;43.706;10.780;2023-12-29T13:57:04;17.50;;;15.40;;
45114;SDS011;30877;43.706;10.780;2023-12-29T13:59:35;18.77;;;16.85;;
45114;SDS011;30877;43.706;10.780;2023-12-29T14:03:02;20.40;;;17.08;;
45114;SDS011;30877;43.706;10.780;2023-12-29T14:09:12;16.85;;;15.07;;
45114;SDS011;30877;43.706;10.780;2023-12-29T14:11:57;16.80;;;14.45;;
45114;SDS011;30877;43.706;10.780;2023-12-29T14:14:26;17.17;;;15.35;;
45114;SDS011;30877;43.706;10.780;2023-12-29T14:20:55;18.17;;;14.53;;
45114;SDS011;30877;43.706;10.780;2023-12-29T14:23:41;16.65;;;14.85;;
45114;SDS011;30877;43.706;10.780;2023-12-29T14:26:36;17.45;;;14.48;;
45114;SDS011;30877;43.706;10.780;2023-12-29T14:29:17;16.92;;;15.13;;
45114;SDS011;30877;43.706;10.780;2023-12-29T14:31:48;16.38;;;14.57;;
45114;SDS011;30877;43.706;10.780;2023-12-29T14:34:20;16.40;;;14.02;;
45114;SDS011;30877;43.706;10.780;2023-12-29T14:36:50;16.13;;;14.30;;
45114;SDS011;30877;43.706;10.780;2023-12-29T14:39:21;16.80;;;14.85;;
45114;SDS011;30877;43.706;10.780;2023-12-29T14:44:56;17.88;;;14.48;;
45114;SDS011;30877;43.706;10.780;2023-12-29T14:52:10;15.23;;;13.63;;
45114;SDS011;30877;43.706;10.780;2023-12-29T14:54:42;15.85;;;13.73;;
45114;SDS011;30877;43.706;10.780;2023-12-29T14:57:16;16.98;;;14.82;;
45114;SDS011;30877;43.706;10.780;2023-12-29T15:05:19;17.50;;;14.02;;
45114;SDS011;30877;43.706;10.780;2023-12-29T15:11:32;17.52;;;12.73;;
45114;SDS011;30877;43.706;10.780;2023-12-29T15:14:15;15.48;;;12.68;;
45114;SDS011;30877;43.706;10.780;2023-12-29T15:17:23;19.13;;;14.55;;
45114;SDS011;30877;43.706;10.780;2023-12-29T15:20:13;19.58;;;15.63;;
45114;SDS011;30877;43.706;10.780;2023-12-29T15:22:54;22.90;;;18.27;;
45114;SDS011;30877;43.706;10.780;2023-12-29T15:25:57;31.80;;;21.67;;
45114;SDS011;30877;43.706;10.780;2023-12-29T15:28:49;19.90;;;16.42;;
45114;SDS011;30877;43.706;10.780;2023-12-29T15:31:33;31.92;;;22.67;;
45114;SDS011;30877;43.706;10.780;2023-12-29T15:34:01;23.67;;;18.77;;
45114;SDS011;30877;43.706;10.780;2023-12-29T15:36:29;28.02;;;21.90;;
45114;SDS011;30877;43.706;10.780;2023-12-29T15:38:57;16.50;;;14.75;;
45114;SDS011;30877;43.706;10.780;2023-12-29T15:41:26;18.63;;;13.07;;
45114;SDS011;30877;43.706;10.780;2023-12-29T15:43:57;14.48;;;12.98;;
45114;SDS011;30877;43.706;10.780;2023-12-29T15:46:25;15.32;;;12.98;;
45114;SDS011;30877;43.706;10.780;2023-12-29T15:48:53;15.40;;;12.52;;
45114;SDS011;30877;43.706;10.780;2023-12-29T15:51:25;15.70;;;13.60;;
45114;SDS011;30877;43.706;10.780;2023-12-29T15:53:53;15.70;;;13.65;;
45114;SDS011;30877;43.706;10.780;2023-12-29T15:56:22;18.27;;;14.82;;
45114;SDS011;30877;43.706;10.780;2023-12-29T15:58:50;18.13;;;14.32;;
45114;SDS011;30877;43.706;10.780;2023-12-29T16:01:24;16.25;;;14.52;;
45114;SDS011;30877;43.706;10.780;2023-12-29T16:03:57;19.25;;;16.00;;
45114;SDS011;30877;43.706;10.780;2023-12-29T16:06:26;18.38;;;16.05;;
45114;SDS011;30877;43.706;10.780;2023-12-29T16:08:56;20.75;;;17.48;;
45114;SDS011;30877;43.706;10.780;2023-12-29T16:11:25;18.15;;;16.25;;
45114;SDS011;30877;43.706;10.780;2023-12-29T16:13:53;18.58;;;16.08;;
45114;SDS011;30877;43.706;10.780;2023-12-29T16:16:28;18.70;;;15.65;;
45114;SDS011;30877;43.706;10.780;2023-12-29T16:19:00;18.75;;;16.75;;
45114;SDS011;30877;43.706;10.780;2023-12-29T16:21:35;20.00;;;15.73;;
45114;SDS011;30877;43.706;10.780;2023-12-29T16:24:07;21.83;;;17.30;;
45114;SDS011;30877;43.706;10.780;2023-12-29T16:27:41;21.40;;;17.42;;
45114;SDS011;30877;43.706;10.780;2023-12-29T16:30:12;23.70;;;18.65;;
45114;SDS011;30877;43.706;10.780;2023-12-29T16:34:23;27.27;;;21.70;;
45114;SDS011;30877;43.706;10.780;2023-12-29T16:37:04;23.33;;;20.00;;
45114;SDS011;30877;43.706;10.780;2023-12-29T16:42:47;23.38;;;19.35;;
45114;SDS011;30877;43.706;10.780;2023-12-29T16:48:52;21.33;;;18.75;;
45114;SDS011;30877;43.706;10.780;2023-12-29T16:52:28;23.80;;;19.67;;
45114;SDS011;30877;43.706;10.780;2023-12-29T16:55:27;22.92;;;17.95;;
45114;SDS011;30877;43.706;10.780;2023-12-29T17:09:09;25.77;;;20.35;;
45114;SDS011;30877;43.706;10.780;2023-12-29T17:11:44;26.60;;;20.08;;
45114;SDS011;30877;43.706;10.780;2023-12-29T17:14:54;23.70;;;19.55;;
45114;SDS011;30877;43.706;10.780;2023-12-29T17:17:23;25.88;;;20.15;;
45114;SDS011;30877;43.706;10.780;2023-12-29T17:24:39;27.65;;;21.25;;
45114;SDS011;30877;43.706;10.780;2023-12-29T17:27:16;27.17;;;22.63;;
45114;SDS011;30877;43.706;10.780;2023-12-29T17:29:45;29.85;;;23.85;;
45114;SDS011;30877;43.706;10.780;2023-12-29T17:32:17;29.83;;;23.40;;
45114;SDS011;30877;43.706;10.780;2023-12-29T17:34:46;28.83;;;22.55;;
45114;SDS011;30877;43.706;10.780;2023-12-29T17:37:52;24.98;;;21.15;;
45114;SDS011;30877;43.706;10.780;2023-12-29T17:47:51;29.05;;;22.63;;
45114;SDS011;30877;43.706;10.780;2023-12-29T17:50:23;31.33;;;23.13;;
45114;SDS011;30877;43.706;10.780;2023-12-29T17:52:52;28.20;;;22.50;;
45114;SDS011;30877;43.706;10.780;2023-12-29T17:55:32;30.00;;;22.63;;
45114;SDS011;30877;43.706;10.780;2023-12-29T18:02:43;28.52;;;22.35;;
45114;SDS011;30877;43.706;10.780;2023-12-29T18:06:04;29.02;;;21.63;;
45114;SDS011;30877;43.706;10.780;2023-12-29T18:09:17;26.55;;;22.35;;
45114;SDS011;30877;43.706;10.780;2023-12-29T18:23:10;26.85;;;20.85;;
45114;SDS011;30877;43.706;10.780;2023-12-29T18:25:53;24.92;;;21.65;;
45114;SDS011;30877;43.706;10.780;2023-12-29T18:32:24;23.95;;;20.50;;
45114;SDS011;30877;43.706;10.780;2023-12-29T18:34:54;24.90;;;21.08;;
45114;SDS011;30877;43.706;10.780;2023-12-29T18:38:00;28.85;;;22.90;;
45114;SDS011;30877;43.706;10.780;2023-12-29T18:40:32;25.10;;;21.02;;
45114;SDS011;30877;43.706;10.780;2023-12-29T18:43:02;26.40;;;21.42;;
45114;SDS011;30877;43.706;10.780;2023-12-29T18:46:47;25.05;;;21.00;;
45114;SDS011;30877;43.706;10.780;2023-12-29T18:58:06;28.73;;;23.20;;
45114;SDS011;30877;43.706;10.780;2023-12-29T19:08:20;31.63;;;25.40;;
45114;SDS011;30877;43.706;10.780;2023-12-29T19:10:52;30.50;;;26.77;;
45114;SDS011;30877;43.706;10.780;2023-12-29T19:13:22;32.28;;;26.20;;
45114;SDS011;30877;43.706;10.780;2023-12-29T19:15:51;32.35;;;26.10;;
45114;SDS011;30877;43.706;10.780;2023-12-29T19:21:50;28.08;;;24.77;;
45114;SDS011;30877;43.706;10.780;2023-12-29T19:24:21;29.02;;;25.42;;